CheckWX is a tool to help pilots better visualize weather data.  It is not intended as a substitute for an official pre-flight weather briefing.

08:29:32 UTC

KUTS TAF
Huntsville Municipal Airport
Huntsville, Texas, USA
KUTS 241121Z 2412/2512 VRB03KT P6SM SCT006 BKN025 FM241500 16007KT P6SM VCTS SCT020CB BKN040 TEMPO 2419/2421 4SM TSRA BKN030CB FM242100 15007KT 6SM SHRA VCTS BKN040CB FM250400 13006KT P6SM SCT025 BKN090 FM250600 14006KT P6SM VCSH BKN017

May-24@
12:00 UTC

May-24 @ 12:00 UTC

May-24@
15:00 UTC

May-24 @ 15:00 UTC

TAF KUTS 241121Z 2412/2512 VRB03KT P6SM SCT006 BKN025

Expired

Wind
  • Variable at 3 KTS
Cloud Levels
  • Scattered at 600' AGL
  • Broken at 2,500' AGL

May-24@
15:00 UTC

May-24 @ 15:00 UTC

May-24@
21:00 UTC

May-24 @ 21:00 UTC

FM241500 16007KT P6SM VCTS SCT020CB BKN040

Expired

Wind
  • 160° at 7 KTS
Conditions
Area Thunderstorm
Cloud Levels
  • Scattered at 2,000' AGL
  • Broken at 4,000' AGL

May-24@
19:00 UTC

May-24 @ 19:00 UTC

May-24@
21:00 UTC

May-24 @ 21:00 UTC

TEMPO 2419/2421 4SM TSRA BKN030CB

Expired

Conditions
Thunderstorm, Rain
Cloud Levels
  • Broken at 3,000' AGL

May-24@
21:00 UTC

May-24 @ 21:00 UTC

May-25@
04:00 UTC

May-25 @ 04:00 UTC

FM242100 15007KT 6SM SHRA VCTS BKN040CB

Expired

Wind
  • 150° at 7 KTS
Conditions
Showers, Rain, Area Thunderstorm
Cloud Levels
  • Broken at 4,000' AGL

May-25@
04:00 UTC

May-25 @ 04:00 UTC

May-25@
06:00 UTC

May-25 @ 06:00 UTC

FM250400 13006KT P6SM SCT025 BKN090

Expired

Wind
  • 130° at 6 KTS
Cloud Levels
  • Scattered at 2,500' AGL
  • Broken at 9,000' AGL

May-25@
06:00 UTC

May-25 @ 06:00 UTC

May-25@
12:00 UTC

May-25 @ 12:00 UTC

FM250600 14006KT P6SM VCSH BKN017

From

From Standard forecast or significant change

Wind
  • 140° at 6 KTS
Conditions
Area Showers
Cloud Levels
  • Broken at 1,700' AGL